createdAt,value
2022-11-13T01:10:53.976Z,-0.90
2022-11-13T01:13:43.259Z,-0.90
2022-11-13T01:16:31.004Z,-1.00
2022-11-13T01:35:43.705Z,-1.30
2022-11-13T01:40:58.195Z,-1.20
2022-11-13T01:43:53.272Z,-1.20
2022-11-13T01:46:42.078Z,-1.10
2022-11-13T01:52:29.766Z,-1.20
2022-11-13T01:55:20.648Z,-1.30
2022-11-13T01:58:19.582Z,-1.40
2022-11-13T02:01:09.116Z,-1.50
2022-11-13T02:14:21.851Z,-1.70
2022-11-13T03:08:35.043Z,-1.80
2022-11-13T03:11:13.490Z,-1.80
2022-11-13T03:13:58.106Z,-1.90
2022-11-13T03:16:45.024Z,-1.90
2022-11-13T03:19:54.268Z,-1.90
2022-11-13T03:26:07.944Z,-1.80
2022-11-13T03:29:02.766Z,-1.80
2022-11-13T03:32:07.143Z,-1.70
2022-11-13T03:34:57.054Z,-1.60
2022-11-13T03:37:36.490Z,-1.50
2022-11-13T03:40:25.067Z,-1.30
2022-11-13T03:43:02.679Z,-1.30
2022-11-13T03:45:53.118Z,-1.20
2022-11-13T03:48:34.669Z,-1.20
2022-11-13T03:51:12.389Z,-1.20
2022-11-13T03:53:47.167Z,-1.20
2022-11-13T03:56:36.832Z,-1.10
2022-11-13T03:59:37.642Z,-1.10
2022-11-13T04:02:27.955Z,-1.10
2022-11-13T04:05:25.473Z,-0.90
2022-11-13T04:08:16.067Z,-0.70
2022-11-13T04:11:17.369Z,-0.60
2022-11-13T04:14:26.477Z,-0.60
2022-11-13T04:17:19.176Z,-0.80
2022-11-13T04:23:26.278Z,-0.90
2022-11-13T04:35:26.876Z,-1.00
2022-11-13T04:38:22.529Z,-1.00
2022-11-13T04:41:21.723Z,-0.90
2022-11-13T04:44:09.719Z,-0.90
2022-11-13T04:47:03.846Z,-0.90
2022-11-13T04:50:46.737Z,-1.00
2022-11-13T04:57:23.237Z,-1.10
2022-11-13T05:00:07.016Z,-1.10
2022-11-13T05:02:51.509Z,-1.10
2022-11-13T05:05:44.048Z,-1.10
2022-11-13T05:11:53.398Z,-1.10
2022-11-13T05:17:32.488Z,-1.30
2022-11-13T05:20:26.215Z,-1.20
2022-11-13T05:26:06.010Z,-1.30
2022-11-13T05:29:16.599Z,-1.40
2022-11-13T05:35:15.810Z,-1.40
2022-11-13T05:38:13.316Z,-1.50
2022-11-13T05:44:16.223Z,-1.50
2022-11-13T05:50:44.102Z,-1.70
2022-11-13T05:53:47.630Z,-1.60
2022-11-13T05:57:03.955Z,-1.70
2022-11-13T06:03:41.917Z,-1.70
2022-11-13T06:06:43.766Z,-1.80
2022-11-13T06:12:57.698Z,-1.60
2022-11-13T06:15:58.123Z,-1.60
2022-11-13T06:18:38.680Z,-1.60
2022-11-13T06:24:31.907Z,-1.60
2022-11-13T06:30:52.675Z,-1.20
2022-11-13T06:33:42.716Z,-1.10
2022-11-13T06:36:49.758Z,-1.20
2022-11-13T07:27:34.393Z,2.70
2022-11-13T07:30:51.425Z,2.90
2022-11-13T08:13:44.491Z,4.10
2022-11-13T08:16:13.062Z,4.40
2022-11-13T08:18:41.434Z,4.70
2022-11-13T08:21:14.638Z,4.80
2022-11-13T08:23:58.325Z,4.70
2022-11-13T08:26:38.409Z,4.90
2022-11-13T08:29:08.418Z,5.20
2022-11-13T08:45:09.058Z,5.80
2022-11-13T08:47:38.148Z,5.90
2022-11-13T08:50:07.964Z,6.10
2022-11-13T08:52:36.886Z,6.10
2022-11-13T08:55:06.118Z,6.20
2022-11-13T08:57:34.456Z,6.30
2022-11-13T09:00:06.200Z,6.30
2022-11-13T09:02:36.118Z,6.50
2022-11-13T09:05:04.562Z,6.70
2022-11-13T09:07:33.765Z,6.80
2022-11-13T09:10:02.871Z,7.00
2022-11-13T09:12:31.642Z,7.10
2022-11-13T09:15:09.339Z,7.10
2022-11-13T09:17:39.063Z,7.10
2022-11-13T09:20:16.281Z,7.10
2022-11-13T09:22:46.241Z,7.00
2022-11-13T09:25:17.563Z,7.20
2022-11-13T09:27:52.766Z,7.30
2022-11-13T09:30:21.156Z,7.30
2022-11-13T09:32:55.263Z,7.20
2022-11-13T09:35:34.988Z,7.30
2022-11-13T09:38:10.410Z,7.30
2022-11-13T09:40:45.138Z,7.50
2022-11-13T09:43:26.791Z,7.90
2022-11-13T09:45:58.946Z,8.00
2022-11-13T09:48:35.881Z,8.10
2022-11-13T09:51:09.836Z,8.40
2022-11-13T09:53:40.598Z,8.60
2022-11-13T09:56:24.035Z,8.70
2022-11-13T09:59:02.421Z,8.80
2022-11-13T10:01:42.690Z,8.80
2022-11-13T10:04:16.193Z,8.80
2022-11-13T10:06:55.281Z,8.70
2022-11-13T10:09:31.085Z,8.70
2022-11-13T10:12:03.457Z,8.70
2022-11-13T10:14:37.979Z,8.70
2022-11-13T10:17:14.758Z,8.80
2022-11-13T10:19:57.690Z,9.00
2022-11-13T10:22:33.739Z,9.10
2022-11-13T10:25:12.731Z,9.20
2022-11-13T10:27:41.331Z,9.30
2022-11-13T10:30:16.153Z,9.40
2022-11-13T10:32:46.283Z,9.50
2022-11-13T10:35:38.305Z,9.60
2022-11-13T10:38:09.254Z,9.70
2022-11-13T10:40:40.759Z,9.80
2022-11-13T10:43:17.211Z,9.90
2022-11-13T10:45:56.067Z,10.00
2022-11-13T10:48:26.896Z,10.00
2022-11-13T10:51:02.455Z,10.00
2022-11-13T10:53:39.596Z,9.90
2022-11-13T10:56:22.829Z,9.90
2022-11-13T10:59:10.237Z,9.90
2022-11-13T11:01:38.958Z,9.80
2022-11-13T11:04:09.088Z,9.70
2022-11-13T11:09:33.689Z,9.60
2022-11-13T11:12:19.203Z,9.50
2022-11-13T11:15:02.920Z,9.40
2022-11-13T11:17:40.113Z,9.40
2022-11-13T11:20:26.728Z,9.30
2022-11-13T11:23:10.122Z,9.40
2022-11-13T11:25:43.283Z,9.40
2022-11-13T11:28:18.676Z,9.40
2022-11-13T11:30:51.675Z,9.40
2022-11-13T11:33:26.465Z,9.40
2022-11-13T11:36:02.064Z,9.40
2022-11-13T11:38:37.592Z,9.30
2022-11-13T11:41:16.307Z,9.30
2022-11-13T11:43:48.794Z,9.40
2022-11-13T11:46:23.304Z,9.40
2022-11-13T11:48:52.126Z,9.40
2022-11-13T11:51:27.784Z,9.40
2022-11-13T11:54:07.432Z,9.30
2022-11-13T11:56:38.410Z,9.40
2022-11-13T11:59:26.386Z,9.40
2022-11-13T12:02:44.686Z,9.40
2022-11-13T12:05:24.913Z,9.40
2022-11-13T12:08:10.923Z,9.50
2022-11-13T12:10:50.571Z,9.50
2022-11-13T12:13:29.228Z,9.60
2022-11-13T12:16:08.079Z,9.60
2022-11-13T12:18:47.291Z,9.60
2022-11-13T12:21:27.774Z,9.60
2022-11-13T12:24:14.471Z,9.60
2022-11-13T12:26:51.280Z,9.60
2022-11-13T12:29:34.553Z,9.70
2022-11-13T12:32:13.315Z,9.60
2022-11-13T12:34:47.311Z,9.60
2022-11-13T12:37:21.719Z,9.60
2022-11-13T12:39:58.105Z,9.60
2022-11-13T12:42:34.449Z,9.50
2022-11-13T12:45:11.285Z,9.50
2022-11-13T12:47:39.544Z,9.50
2022-11-13T12:50:30.301Z,9.50
2022-11-13T12:53:03.981Z,9.50
2022-11-13T12:55:35.374Z,9.40
2022-11-13T12:58:27.894Z,9.40
2022-11-13T13:01:01.899Z,9.30
2022-11-13T13:03:46.078Z,9.40
2022-11-13T13:06:35.366Z,9.40
2022-11-13T13:09:14.679Z,9.30
2022-11-13T13:11:52.499Z,9.30
2022-11-13T13:14:34.070Z,9.30
2022-11-13T13:17:21.115Z,9.30
2022-11-13T13:19:59.985Z,9.20
2022-11-13T13:22:30.650Z,9.20
2022-11-13T13:25:13.337Z,9.20
2022-11-13T13:27:43.645Z,9.10
2022-11-13T13:30:21.822Z,9.20
2022-11-13T13:33:00.845Z,9.20
2022-11-13T13:35:35.565Z,9.20
2022-11-13T13:38:13.938Z,9.20
2022-11-13T13:40:57.369Z,9.20
2022-11-13T13:43:41.827Z,9.20
2022-11-13T13:46:16.520Z,9.10
2022-11-13T13:48:47.643Z,9.10
2022-11-13T13:51:29.677Z,9.10
2022-11-13T13:54:00.769Z,9.00
2022-11-13T13:56:29.278Z,8.90
2022-11-13T13:58:57.762Z,8.90
2022-11-13T14:01:32.417Z,8.80
2022-11-13T14:04:14.034Z,8.80
2022-11-13T14:06:53.311Z,8.70
2022-11-13T14:09:23.242Z,8.50
2022-11-13T14:11:59.744Z,8.30
2022-11-13T14:14:29.818Z,8.10
2022-11-13T14:17:01.829Z,7.90
2022-11-13T14:19:30.051Z,7.80
2022-11-13T14:22:00.610Z,7.70
2022-11-13T14:24:34.242Z,7.50
2022-11-13T14:27:06.178Z,7.30
2022-11-13T14:29:37.658Z,7.20
2022-11-13T14:32:13.937Z,7.00
2022-11-13T14:34:45.466Z,6.70
2022-11-13T14:37:28.594Z,6.50
2022-11-13T14:39:59.286Z,6.30
2022-11-13T14:42:36.810Z,6.10
2022-11-13T14:45:16.229Z,6.00
2022-11-13T14:47:56.688Z,5.80
2022-11-13T14:50:27.391Z,5.70
2022-11-13T14:53:00.859Z,5.60
2022-11-13T14:55:30.985Z,5.50
2022-11-13T14:57:59.587Z,5.40
2022-11-13T15:00:31.745Z,5.30
2022-11-13T15:03:02.684Z,5.20
2022-11-13T15:05:34.322Z,5.20
2022-11-13T15:08:02.874Z,5.20
2022-11-13T15:10:34.696Z,5.10
2022-11-13T15:13:02.995Z,5.00
2022-11-13T15:15:31.447Z,5.00
2022-11-13T15:18:03.391Z,4.90
2022-11-13T15:20:33.021Z,4.80
2022-11-13T15:23:19.375Z,4.80
2022-11-13T15:25:47.917Z,4.80
2022-11-13T15:28:22.898Z,4.80
2022-11-13T15:30:51.302Z,4.80
2022-11-13T15:33:21.417Z,4.80
2022-11-13T15:35:49.752Z,4.70
2022-11-13T15:38:18.398Z,4.70
2022-11-13T15:40:46.852Z,4.70
2022-11-13T15:43:20.850Z,4.70
2022-11-13T15:45:49.084Z,4.70
2022-11-13T15:48:17.507Z,4.70
2022-11-13T15:50:47.163Z,4.60
2022-11-13T15:53:15.379Z,4.60
2022-11-13T15:55:44.179Z,4.60
2022-11-13T15:58:16.861Z,4.60
2022-11-13T16:00:46.114Z,4.60
2022-11-13T16:03:14.312Z,4.60
2022-11-13T16:05:49.849Z,4.60
2022-11-13T16:08:18.243Z,4.60
2022-11-13T16:10:46.440Z,4.60
2022-11-13T16:13:14.635Z,4.60
2022-11-13T16:15:42.911Z,4.50
2022-11-13T16:18:25.434Z,4.50
2022-11-13T16:20:55.068Z,4.40
2022-11-13T16:23:23.315Z,4.50
2022-11-13T16:25:51.683Z,4.50
2022-11-13T16:28:20.525Z,4.60
2022-11-13T16:30:56.549Z,4.70
2022-11-13T16:33:24.906Z,4.80
2022-11-13T16:35:55.098Z,4.90
2022-11-13T16:38:23.308Z,4.90
2022-11-13T16:40:51.568Z,5.00
2022-11-13T16:43:20.289Z,5.00
2022-11-13T16:45:48.497Z,5.00
2022-11-13T16:48:19.818Z,5.10
2022-11-13T16:50:48.048Z,5.10
2022-11-13T16:53:17.787Z,5.10
2022-11-13T16:55:46.108Z,5.10
2022-11-13T16:58:15.253Z,4.90
2022-11-13T17:00:43.475Z,4.80
2022-11-13T17:03:11.637Z,4.60
2022-11-13T17:05:42.777Z,4.40
2022-11-13T17:08:20.386Z,4.20
2022-11-13T17:10:59.779Z,4.20
2022-11-13T17:13:28.493Z,4.10
2022-11-13T17:16:01.082Z,4.00
2022-11-13T17:18:30.287Z,3.80
2022-11-13T17:20:58.451Z,3.70
2022-11-13T17:23:31.192Z,3.50
2022-11-13T17:25:59.503Z,3.40
2022-11-13T17:28:27.698Z,3.40
2022-11-13T17:31:01.986Z,3.20
2022-11-13T17:33:30.709Z,3.10
2022-11-13T17:36:05.345Z,3.00
2022-11-13T17:38:35.004Z,2.90
2022-11-13T17:41:09.418Z,2.90
2022-11-13T17:43:37.846Z,2.90
2022-11-13T17:46:14.363Z,3.00
2022-11-13T17:48:42.942Z,3.00
2022-11-13T17:51:17.464Z,2.90
2022-11-13T17:53:47.046Z,2.80
2022-11-13T17:56:16.297Z,2.70
2022-11-13T17:58:46.979Z,2.70
2022-11-13T18:01:18.316Z,2.60
2022-11-13T18:03:46.918Z,2.60
2022-11-13T18:06:19.791Z,2.60
2022-11-13T18:09:26.802Z,2.50
2022-11-13T18:11:55.294Z,2.50
2022-11-13T18:14:26.635Z,2.60
2022-11-13T18:16:57.625Z,2.50
2022-11-13T18:19:26.021Z,2.40
2022-11-13T18:21:57.098Z,2.40
2022-11-13T18:24:26.961Z,2.40
2022-11-13T18:26:55.739Z,2.40
2022-11-13T18:29:23.910Z,2.40
2022-11-13T18:31:58.392Z,2.40
2022-11-13T18:34:32.779Z,2.50
2022-11-13T18:37:01.176Z,2.50
2022-11-13T18:39:31.407Z,2.50
2022-11-13T18:42:09.371Z,2.50
2022-11-13T18:44:40.740Z,2.50
2022-11-13T18:47:39.263Z,2.60
2022-11-13T18:50:13.166Z,3.00
2022-11-13T18:53:07.402Z,3.40
2022-11-13T18:55:42.876Z,3.90
2022-11-13T18:58:20.553Z,4.30
2022-11-13T19:01:20.680Z,4.50
2022-11-13T19:04:26.892Z,4.60
2022-11-13T19:07:13.316Z,4.60
2022-11-13T19:09:45.956Z,4.60
2022-11-13T19:12:33.223Z,4.50
2022-11-13T19:15:31.456Z,4.40
2022-11-13T19:18:24.711Z,4.30
2022-11-13T19:21:04.809Z,4.30
2022-11-13T19:23:39.510Z,4.30
2022-11-13T19:26:09.822Z,4.10
2022-11-13T19:28:40.452Z,4.10
2022-11-13T19:31:09.886Z,4.00
2022-11-13T19:33:38.261Z,4.10
2022-11-13T19:36:11.783Z,4.10
2022-11-13T19:38:40.248Z,4.30
2022-11-13T19:41:09.589Z,4.40
2022-11-13T19:43:42.450Z,4.50
2022-11-13T19:46:12.010Z,4.80
2022-11-13T19:48:44.610Z,4.90
2022-11-13T19:51:18.209Z,5.10
2022-11-13T19:53:47.197Z,5.10
2022-11-13T19:56:20.705Z,5.20
2022-11-13T19:58:51.741Z,5.40
2022-11-13T20:01:28.078Z,5.50
2022-11-13T20:03:57.215Z,5.50
2022-11-13T20:06:25.922Z,5.80
2022-11-13T20:08:56.990Z,5.90
2022-11-13T20:11:25.402Z,6.00
2022-11-13T20:13:57.159Z,6.20
2022-11-13T20:16:29.059Z,6.00
2022-11-13T20:18:58.102Z,5.80
2022-11-13T20:21:26.664Z,5.70
2022-11-13T20:23:57.494Z,5.60
2022-11-13T20:26:26.115Z,5.50
2022-11-13T20:28:58.893Z,5.40
2022-11-13T20:31:27.854Z,5.40
2022-11-13T20:33:57.891Z,5.40
2022-11-13T20:36:26.253Z,5.40
2022-11-13T20:38:56.041Z,5.60
2022-11-13T20:41:25.600Z,5.70
2022-11-13T20:43:55.797Z,5.70
2022-11-13T20:46:25.567Z,5.60
2022-11-13T20:48:53.769Z,5.90
2022-11-13T20:51:23.850Z,6.30
2022-11-13T20:53:52.557Z,6.70
2022-11-13T20:56:23.474Z,6.90
2022-11-13T20:58:52.339Z,6.90
2022-11-13T21:01:26.831Z,6.90
2022-11-13T21:03:56.120Z,6.90
2022-11-13T21:06:26.233Z,6.80
2022-11-13T21:08:56.489Z,6.90
2022-11-13T21:11:26.601Z,6.90
2022-11-13T21:13:55.595Z,6.90
2022-11-13T21:16:27.728Z,6.90
2022-11-13T21:18:57.566Z,7.00
2022-11-13T21:21:29.399Z,7.00
2022-11-13T21:23:58.841Z,7.10
2022-11-13T21:26:28.447Z,7.10
2022-11-13T21:28:57.294Z,6.90
2022-11-13T21:31:27.733Z,6.90
2022-11-13T21:33:56.027Z,6.70
2022-11-13T21:36:26.063Z,6.70
2022-11-13T21:38:56.030Z,6.70
2022-11-13T21:41:25.963Z,6.60
2022-11-13T21:43:58.337Z,6.50
2022-11-13T21:46:33.240Z,6.40
2022-11-13T21:49:03.512Z,6.40
2022-11-13T21:51:33.176Z,6.40
2022-11-13T21:54:01.731Z,6.50
2022-11-13T21:56:31.350Z,6.50
2022-11-13T21:58:59.866Z,6.60
2022-11-13T22:01:36.500Z,6.60
2022-11-13T22:04:06.614Z,6.60
2022-11-13T22:06:36.683Z,6.70
2022-11-13T22:09:07.207Z,6.80
2022-11-13T22:11:36.934Z,6.80
2022-11-13T22:14:05.786Z,6.80
2022-11-13T22:16:39.017Z,6.70
2022-11-13T22:19:10.431Z,6.70
2022-11-13T22:21:38.964Z,6.70
2022-11-13T22:24:08.275Z,6.60
2022-11-13T22:26:39.397Z,6.60
2022-11-13T22:29:08.351Z,6.70
2022-11-13T22:31:38.551Z,6.70
2022-11-13T22:34:07.405Z,6.70
2022-11-13T22:36:38.487Z,6.60
2022-11-13T22:39:07.233Z,6.60
2022-11-13T22:41:37.064Z,6.70
2022-11-13T22:44:14.586Z,6.60
2022-11-13T22:46:44.394Z,6.80
2022-11-13T22:49:17.613Z,6.90
2022-11-13T22:51:45.940Z,6.90
2022-11-13T22:54:14.602Z,6.80
2022-11-13T22:56:43.424Z,6.70
2022-11-13T22:59:14.790Z,6.70
2022-11-13T23:01:46.806Z,6.60
2022-11-13T23:04:15.519Z,6.60
2022-11-13T23:06:44.124Z,6.60
2022-11-13T23:09:12.721Z,6.70
2022-11-13T23:11:42.424Z,6.60
2022-11-13T23:14:14.222Z,6.60
2022-11-13T23:16:44.255Z,6.70
2022-11-13T23:19:13.115Z,6.80
2022-11-13T23:21:41.447Z,7.00
2022-11-13T23:24:11.631Z,7.10
2022-11-13T23:26:40.665Z,7.10
2022-11-13T23:29:10.198Z,7.10
2022-11-13T23:31:39.766Z,7.20
2022-11-13T23:34:13.156Z,7.20
2022-11-13T23:36:41.575Z,7.10
2022-11-13T23:39:09.769Z,7.10
2022-11-13T23:41:37.987Z,7.20
2022-11-13T23:44:09.494Z,7.10
2022-11-13T23:46:38.309Z,7.00
2022-11-13T23:49:08.263Z,7.00
2022-11-13T23:51:36.559Z,7.10
2022-11-13T23:54:04.877Z,7.10
2022-11-13T23:56:33.114Z,7.00
2022-11-13T23:59:01.305Z,6.90
